This is the latest recevied weather packets stored in our database for station/object CW79215. If no packets are shown the sender has not sent any weather packets the latest 10 day(s).
| Time | Temp. | Humidity | Pressure | Rain* | Wind** | Luminosity | Snow |
|---|---|---|---|---|---|---|---|
| 1777699338 | 9.44° C | 60% | 1026.9 hPa | - | - | - | - |
| 1777698438 | 9.44° C | 60% | 1026.9 hPa | - | - | - | - |
| 1777697538 | 8.33° C | 64% | 1026.9 hPa | - | - | - | - |
| 1777696638 | 7.78° C | 66% | 1026.9 hPa | - | - | - | - |
| 1777695738 | 7.78° C | 66% | 1026.8 hPa | - | - | - | - |
| 1777694838 | 7.78° C | 67% | 1026.9 hPa | - | - | - | - |
| 1777693938 | 7.78° C | 65% | 1026.9 hPa | - | - | - | - |
| 1777693038 | 7.22° C | 66% | 1026.9 hPa | - | - | - | - |
| 1777692137 | 8.33° C | 64% | 1026.9 hPa | - | - | - | - |
| 1777691237 | 8.33° C | 64% | 1026.9 hPa | - | - | - | - |
| 1777690337 | 8.33° C | 65% | 1027 hPa | - | - | - | - |
| 1777689437 | 8.33° C | 63% | 1027 hPa | - | - | - | - |
| 1777688537 | 8.33° C | 64% | 1027 hPa | - | - | - | - |
| 1777687637 | 8.33° C | 64% | 1027 hPa | - | - | - | - |
| 1777686737 | 8.89° C | 63% | 1026.9 hPa | - | - | - | - |
| 1777685837 | 8.33° C | 63% | 1027 hPa | - | - | - | - |
| 1777684937 | 8.89° C | 64% | 1026.9 hPa | - | - | - | - |
| 1777684037 | 8.89° C | 63% | 1027 hPa | - | - | - | - |
| 1777683137 | 8.89° C | 64% | 1027 hPa | - | - | - | - |
| 1777682237 | 9.44° C | 63% | 1027 hPa | - | - | - | - |
| 1777681336 | 9.44° C | 63% | 1027 hPa | - | - | - | - |
| 1777680436 | 9.44° C | 62% | 1027.1 hPa | - | - | - | - |
| 1777679536 | 10° C | 62% | 1027.3 hPa | - | - | - | - |
| 1777678636 | 10.56° C | 61% | 1027.3 hPa | - | - | - | - |
| 1777677736 | 10° C | 62% | 1027.4 hPa | - | - | - | - |
* Rain since midnight (hover to see other rain measurements)
** Current wind speed in m/s (hover to see current wind gust speed)